Time;durP1;ratioP1;P1;durP2;ratioP2;P2;SDS_P1;SDS_P2;PMS_P1;PMS_P2;Temp;Humidity;BMP_temperature;BMP_pressure;BME280_temperature;BME280_humidity;BME280_pressure;Samples;Min_cycle;Max_cycle;Signal;HPM_P1;HPM_P2
2022/09/04 00:00:55;;;;;;;5.70;2.53;;;;;;;;;;5052887;28;20420;-73
2022/09/04 00:03:34;;;;;;;10.30;2.55;;;;;;;;;;5053161;28;20029;-73
2022/09/04 00:06:01;;;;;;;6.65;2.40;;;;;;;;;;5055694;28;20108;-74
2022/09/04 00:08:43;;;;;;;6.55;2.53;;;;;;;;;;5056373;28;20535;-74
2022/09/04 00:11:10;;;;;;;5.50;2.47;;;;;;;;;;5056657;28;20024;-74
2022/09/04 00:13:45;;;;;;;9.68;2.53;;;;;;;;;;5038742;28;20080;-72
2022/09/04 00:16:30;;;;;;;6.63;3.13;;;;;;;;;;5056277;28;20025;-73
2022/09/04 00:19:25;;;;;;;8.75;2.60;;;;;;;;;;5055940;28;20035;-73
2022/09/04 00:21:54;;;;;;;8.93;2.80;;;;;;;;;;5046884;28;20040;-74
2022/09/04 00:24:25;;;;;;;9.05;2.85;;;;;;;;;;5055774;28;20025;-73
2022/09/04 00:27:03;;;;;;;9.57;3.13;;;;;;;;;;5055800;28;20025;-74
2022/09/04 00:29:32;;;;;;;7.32;3.15;;;;;;;;;;5037900;28;20447;-74
2022/09/04 00:32:07;;;;;;;7.18;2.53;;;;;;;;;;5055692;28;20025;-74
2022/09/04 00:34:39;;;;;;;5.63;2.45;;;;;;;;;;5056272;28;20021;-74
2022/09/04 00:37:06;;;;;;;5.78;3.00;;;;;;;;;;5055522;28;20025;-74
2022/09/04 00:39:38;;;;;;;8.30;2.85;;;;;;;;;;5055543;28;20028;-74
2022/09/04 00:42:04;;;;;;;6.68;2.97;;;;;;;;;;5055793;28;20393;-71
2022/09/04 00:44:42;;;;;;;8.13;2.92;;;;;;;;;;5055479;28;20025;-75
2022/09/04 00:47:08;;;;;;;10.55;3.10;;;;;;;;;;5055391;28;20033;-73
2022/09/04 00:49:46;;;;;;;8.77;2.58;;;;;;;;;;5055365;28;20025;-74
2022/09/04 00:52:19;;;;;;;11.68;2.80;;;;;;;;;;5055639;28;20116;-71
2022/09/04 00:54:51;;;;;;;8.70;3.17;;;;;;;;;;5055572;28;20033;-75
2022/09/04 00:57:33;;;;;;;8.15;2.30;;;;;;;;;;5054900;28;20045;-74
2022/09/04 01:00:06;;;;;;;6.97;2.55;;;;;;;;;;5055215;28;20358;-73
2022/09/04 01:02:51;;;;;;;8.80;2.75;;;;;;;;;;5055429;28;20032;-75
2022/09/04 01:05:35;;;;;;;9.48;3.35;;;;;;;;;;5055291;28;20538;-74
2022/09/04 01:08:06;;;;;;;6.20;2.80;;;;;;;;;;5055338;28;20032;-73
2022/09/04 01:10:40;;;;;;;7.30;3.10;;;;;;;;;;5055282;28;20025;-75
2022/09/04 01:13:10;;;;;;;8.77;2.70;;;;;;;;;;5056042;28;20025;-74
2022/09/04 01:16:05;;;;;;;10.25;2.70;;;;;;;;;;5054878;28;20496;-73
2022/09/04 01:18:42;;;;;;;8.73;2.88;;;;;;;;;;5046197;28;20052;-76
2022/09/04 01:21:29;;;;;;;9.45;2.83;;;;;;;;;;5055402;28;20078;-73
2022/09/04 01:24:14;;;;;;;11.23;3.47;;;;;;;;;;5055340;28;20040;-73
2022/09/04 01:26:47;;;;;;;9.27;3.28;;;;;;;;;;5054704;28;20025;-73
2022/09/04 01:29:22;;;;;;;10.60;2.90;;;;;;;;;;5055017;28;20096;-74
2022/09/04 01:32:09;;;;;;;6.18;2.50;;;;;;;;;;5054617;28;20032;-74
2022/09/04 01:34:35;;;;;;;5.15;2.72;;;;;;;;;;5055101;28;20039;-72
2022/09/04 01:37:28;;;;;;;9.15;2.72;;;;;;;;;;5054964;28;20053;-72
2022/09/04 01:40:13;;;;;;;7.43;2.95;;;;;;;;;;5054752;28;20036;-72
2022/09/04 01:42:59;;;;;;;8.88;2.72;;;;;;;;;;5054420;28;20499;-73
2022/09/04 01:45:33;;;;;;;5.47;2.50;;;;;;;;;;5054479;28;20078;-74
2022/09/04 01:48:02;;;;;;;6.65;2.95;;;;;;;;;;5054579;28;20029;-73
2022/09/04 01:50:31;;;;;;;7.93;3.17;;;;;;;;;;5054482;28;20484;-73
2022/09/04 01:53:06;;;;;;;8.97;3.50;;;;;;;;;;5054491;28;20021;-73
2022/09/04 01:55:51;;;;;;;6.13;3.03;;;;;;;;;;5054677;28;20515;-74
2022/09/04 01:58:35;;;;;;;8.52;3.30;;;;;;;;;;5053850;28;20083;-73
2022/09/04 02:01:20;;;;;;;10.30;3.70;;;;;;;;;;5054254;28;20024;-73
2022/09/04 02:03:46;;;;;;;10.23;3.40;;;;;;;;;;5053958;28;20037;-72
2022/09/04 02:06:15;;;;;;;8.20;2.88;;;;;;;;;;5053883;28;20021;-75
2022/09/04 02:08:55;;;;;;;6.88;3.15;;;;;;;;;;5054237;28;20481;-73
2022/09/04 02:11:25;;;;;;;7.05;2.45;;;;;;;;;;5054195;28;20025;-74
2022/09/04 02:14:10;;;;;;;7.45;3.33;;;;;;;;;;5054659;28;20082;-74
2022/09/04 02:17:07;;;;;;;11.10;3.45;;;;;;;;;;5053684;28;20024;-73
2022/09/04 02:19:42;;;;;;;8.10;3.50;;;;;;;;;;5045176;28;20396;-75
2022/09/04 02:22:28;;;;;;;6.22;3.13;;;;;;;;;;5053950;28;20079;-72
2022/09/04 02:25:00;;;;;;;6.65;2.50;;;;;;;;;;5054203;28;20104;-75
2022/09/04 02:27:26;;;;;;;7.68;2.97;;;;;;;;;;5053472;28;20033;-72
2022/09/04 02:30:03;;;;;;;8.80;3.22;;;;;;;;;;5053532;28;20435;-72
2022/09/04 02:32:36;;;;;;;8.23;2.83;;;;;;;;;;5053771;28;20381;-73
2022/09/04 02:35:22;;;;;;;6.68;2.80;;;;;;;;;;5053453;28;20529;-73
2022/09/04 02:37:55;;;;;;;8.15;3.17;;;;;;;;;;5053220;28;20020;-72
2022/09/04 02:40:39;;;;;;;7.78;2.67;;;;;;;;;;5053354;28;20025;-74
2022/09/04 02:43:11;;;;;;;10.88;3.30;;;;;;;;;;5053325;28;20063;-72
2022/09/04 02:45:58;;;;;;;8.00;3.00;;;;;;;;;;5053877;28;20075;-73
2022/09/04 02:48:38;;;;;;;6.72;3.42;;;;;;;;;;5053214;28;20024;-74
2022/09/04 02:51:16;;;;;;;10.02;3.00;;;;;;;;;;5053886;28;20031;-74
2022/09/04 02:53:49;;;;;;;5.35;3.05;;;;;;;;;;5053167;28;20056;-73
2022/09/04 02:56:18;;;;;;;8.05;2.95;;;;;;;;;;5053012;28;20032;-75
2022/09/04 02:59:06;;;;;;;6.95;2.80;;;;;;;;;;5053625;28;20113;-74
2022/09/04 03:01:38;;;;;;;8.55;2.75;;;;;;;;;;5053485;28;20021;-72
2022/09/04 03:04:13;;;;;;;6.10;2.85;;;;;;;;;;5053720;28;20056;-74
2022/09/04 03:06:42;;;;;;;7.72;3.33;;;;;;;;;;5053002;28;20099;-72
2022/09/04 03:09:10;;;;;;;5.70;2.78;;;;;;;;;;5053052;28;20021;-72
2022/09/04 03:11:40;;;;;;;5.78;3.28;;;;;;;;;;5053027;28;20103;-73
2022/09/04 03:14:17;;;;;;;7.75;3.28;;;;;;;;;;5053557;28;20027;-74
2022/09/04 03:16:47;;;;;;;5.22;2.97;;;;;;;;;;5053251;28;20083;-73
2022/09/04 03:19:22;;;;;;;6.43;3.33;;;;;;;;;;5053267;28;20468;-75
2022/09/04 03:22:06;;;;;;;4.80;3.38;;;;;;;;;;5035061;28;20032;-74
2022/09/04 03:24:35;;;;;;;9.25;3.40;;;;;;;;;;5053252;28;20400;-74
2022/09/04 03:27:03;;;;;;;6.22;3.15;;;;;;;;;;5052902;28;20033;-74
2022/09/04 03:29:50;;;;;;;5.97;2.92;;;;;;;;;;5052860;28;20032;-75
2022/09/04 03:32:34;;;;;;;6.25;2.67;;;;;;;;;;5052894;28;20504;-73
2022/09/04 03:35:00;;;;;;;10.65;3.00;;;;;;;;;;5053114;28;20029;-76
2022/09/04 03:37:26;;;;;;;6.53;2.78;;;;;;;;;;5052709;28;20032;-72
2022/09/04 03:39:55;;;;;;;6.38;2.85;;;;;;;;;;5054410;28;20021;-73
2022/09/04 03:42:28;;;;;;;6.05;2.95;;;;;;;;;;5056963;28;20032;-73
2022/09/04 03:45:08;;;;;;;13.20;3.65;;;;;;;;;;5056944;28;20055;-73
2022/09/04 03:47:59;;;;;;;8.00;3.83;;;;;;;;;;5056906;28;20105;-73
2022/09/04 03:50:50;;;;;;;5.90;2.75;;;;;;;;;;5057090;28;20040;-74
2022/09/04 03:53:18;;;;;;;7.20;3.03;;;;;;;;;;5056749;28;20025;-73
2022/09/04 03:56:03;;;;;;;7.43;3.00;;;;;;;;;;5056938;28;20036;-72
2022/09/04 03:58:44;;;;;;;6.43;3.10;;;;;;;;;;5055853;28;20124;-73
2022/09/04 04:01:17;;;;;;;8.27;3.22;;;;;;;;;;5056883;28;20105;-73
2022/09/04 04:03:46;;;;;;;6.63;2.90;;;;;;;;;;5056563;28;20021;-72
2022/09/04 04:06:23;;;;;;;6.90;2.97;;;;;;;;;;5056363;28;20035;-73
2022/09/04 04:08:58;;;;;;;7.07;3.03;;;;;;;;;;5056449;28;20025;-73
2022/09/04 04:11:41;;;;;;;7.75;2.80;;;;;;;;;;5056624;28;20025;-72
2022/09/04 04:14:28;;;;;;;10.57;3.58;;;;;;;;;;5056570;28;20505;-73
2022/09/04 04:16:54;;;;;;;10.07;3.42;;;;;;;;;;5056490;28;20527;-74
2022/09/04 04:19:23;;;;;;;7.68;3.17;;;;;;;;;;5056226;28;20380;-74
2022/09/04 04:22:04;;;;;;;6.85;3.22;;;;;;;;;;5056142;28;20469;-72
2022/09/04 04:24:40;;;;;;;6.55;3.33;;;;;;;;;;5055840;28;20047;-73
2022/09/04 04:27:21;;;;;;;7.93;3.17;;;;;;;;;;5037636;28;20377;-73
2022/09/04 04:29:47;;;;;;;7.13;3.47;;;;;;;;;;5056332;28;20104;-74
2022/09/04 04:32:16;;;;;;;9.45;3.00;;;;;;;;;;5055746;28;20484;-75
2022/09/04 04:34:48;;;;;;;7.13;3.55;;;;;;;;;;5056213;28;20029;-74
2022/09/04 04:37:24;;;;;;;6.65;3.13;;;;;;;;;;5055592;28;20108;-73
2022/09/04 04:39:50;;;;;;;13.48;3.88;;;;;;;;;;5055888;28;20024;-74
2022/09/04 04:42:43;;;;;;;10.50;3.45;;;;;;;;;;5055511;28;20037;-74
2022/09/04 04:48:31;;;;;;;5.90;3.35;;;;;;;;;;5055459;28;20083;-74
2022/09/04 04:51:18;;;;;;;6.13;3.70;;;;;;;;;;5055019;28;20025;-72
2022/09/04 04:54:07;;;;;;;8.48;4.00;;;;;;;;;;5055686;28;20096;-74
2022/09/04 04:56:44;;;;;;;8.95;3.75;;;;;;;;;;5054431;28;20057;-74
2022/09/04 04:59:23;;;;;;;6.45;2.80;;;;;;;;;;5037058;28;20033;-74
2022/09/04 05:01:57;;;;;;;9.05;3.70;;;;;;;;;;5055453;28;20492;-74
2022/09/04 05:04:37;;;;;;;13.07;3.45;;;;;;;;;;5055481;28;20484;-73
2022/09/04 05:07:09;;;;;;;5.70;2.92;;;;;;;;;;5055128;28;20032;-75
2022/09/04 05:09:50;;;;;;;12.10;3.97;;;;;;;;;;5055378;28;20024;-74
2022/09/04 05:12:23;;;;;;;10.52;3.55;;;;;;;;;;5055295;28;20485;-73
2022/09/04 05:14:49;;;;;;;8.15;3.55;;;;;;;;;;5055517;28;20404;-74
2022/09/04 05:17:18;;;;;;;7.13;3.63;;;;;;;;;;5054831;28;20025;-73
2022/09/04 05:19:44;;;;;;;7.25;3.28;;;;;;;;;;5054875;28;20103;-74
2022/09/04 05:22:20;;;;;;;10.50;3.47;;;;;;;;;;5054800;28;20492;-74
2022/09/04 05:24:50;;;;;;;6.72;3.30;;;;;;;;;;5055042;28;20025;-73
2022/09/04 05:27:16;;;;;;;;;;;;;;;;;;5055421;28;20078;-73
2022/09/04 05:29:50;;;;;;;10.20;3.95;;;;;;;;;;5054687;28;20323;-74
2022/09/04 05:32:32;;;;;;;6.03;3.50;;;;;;;;;;5055217;28;20033;-73
2022/09/04 05:34:58;;;;;;;9.43;3.30;;;;;;;;;;5054555;28;20032;-72
2022/09/04 05:37:27;;;;;;;8.82;3.92;;;;;;;;;;5054468;28;20453;-73
2022/09/04 05:39:59;;;;;;;8.07;3.60;;;;;;;;;;5054478;28;20048;-73
2022/09/04 05:42:49;;;;;;;7.80;3.50;;;;;;;;;;5036499;28;20467;-73
2022/09/04 05:45:15;;;;;;;10.05;4.10;;;;;;;;;;5048805;28;20115;-75
2022/09/04 05:47:54;;;;;;;9.00;3.92;;;;;;;;;;5054265;28;20104;-73
2022/09/04 05:50:31;;;;;;;8.25;3.50;;;;;;;;;;5054591;28;20052;-74
2022/09/04 05:52:58;;;;;;;10.73;4.18;;;;;;;;;;5054491;28;20029;-73
2022/09/04 05:55:49;;;;;;;11.68;4.05;;;;;;;;;;5054194;28;20021;-73
2022/09/04 05:58:16;;;;;;;11.63;3.42;;;;;;;;;;5053751;28;20064;-74
2022/09/04 06:01:00;;;;;;;9.32;3.28;;;;;;;;;;5036201;28;20481;-74
2022/09/04 06:03:39;;;;;;;9.68;3.83;;;;;;;;;;5053258;28;20507;-73
2022/09/04 06:06:08;;;;;;;5.03;3.15;;;;;;;;;;5054160;28;20029;-74
2022/09/04 06:08:37;;;;;;;6.53;3.58;;;;;;;;;;5054387;28;20029;-73
2022/09/04 06:11:22;;;;;;;8.23;3.80;;;;;;;;;;5053850;28;20025;-73
2022/09/04 06:14:06;;;;;;;9.45;3.38;;;;;;;;;;5054326;28;20393;-73
2022/09/04 06:16:32;;;;;;;8.68;3.22;;;;;;;;;;5053018;28;20021;-72
2022/09/04 06:19:17;;;;;;;7.95;3.70;;;;;;;;;;5053569;28;20358;-73
2022/09/04 06:22:00;;;;;;;11.23;3.78;;;;;;;;;;5053232;28;20108;-74
2022/09/04 06:24:29;;;;;;;8.15;3.70;;;;;;;;;;5053936;28;20029;-74
2022/09/04 06:27:03;;;;;;;6.72;3.38;;;;;;;;;;5053183;28;20024;-75
2022/09/04 06:29:47;;;;;;;7.25;3.42;;;;;;;;;;5052372;28;20025;-74
2022/09/04 06:32:32;;;;;;;8.20;3.78;;;;;;;;;;5053403;28;20021;-74
2022/09/04 06:35:08;;;;;;;6.78;2.92;;;;;;;;;;5053539;28;20473;-74
2022/09/04 06:37:35;;;;;;;6.85;3.30;;;;;;;;;;5053704;28;20052;-73
2022/09/04 06:40:04;;;;;;;6.47;2.80;;;;;;;;;;5052264;28;20025;-73
2022/09/04 06:42:44;;;;;;;6.07;2.60;;;;;;;;;;5052309;28;20024;-74
2022/09/04 06:45:19;;;;;;;7.53;2.55;;;;;;;;;;5053649;28;20047;-74
2022/09/04 06:47:57;;;;;;;7.03;2.50;;;;;;;;;;5053164;28;20029;-74
2022/09/04 06:50:30;;;;;;;7.90;2.47;;;;;;;;;;5053823;28;20029;-75
2022/09/04 06:53:04;;;;;;;5.75;1.98;;;;;;;;;;5053114;28;20057;-74
2022/09/04 06:55:50;;;;;;;5.93;2.25;;;;;;;;;;5053470;28;20033;-74
2022/09/04 06:58:42;;;;;;;6.50;2.10;;;;;;;;;;5052611;28;20049;-72
2022/09/04 07:01:29;;;;;;;4.15;2.20;;;;;;;;;;5051935;28;20384;-73
2022/09/04 07:03:55;;;;;;;5.57;1.95;;;;;;;;;;5051693;28;20028;-73
2022/09/04 07:06:30;;;;;;;7.05;2.20;;;;;;;;;;5053076;28;20023;-73
2022/09/04 07:09:02;;;;;;;5.60;1.92;;;;;;;;;;5053412;28;20100;-74
2022/09/04 07:11:44;;;;;;;6.90;2.00;;;;;;;;;;5053619;28;20056;-74
2022/09/04 07:14:45;;;;;;;8.13;2.10;;;;;;;;;;5056232;28;20021;-73
2022/09/04 07:17:20;;;;;;;5.05;2.10;;;;;;;;;;5014270;28;20038;-73
2022/09/04 07:19:46;;;;;;;5.65;2.28;;;;;;;;;;5051132;28;20041;-73
2022/09/04 07:22:18;;;;;;;4.32;1.95;;;;;;;;;;5057019;28;20029;-73
2022/09/04 07:25:02;;;;;;;7.18;2.63;;;;;;;;;;5057011;28;20028;-74
2022/09/04 07:27:54;;;;;;;5.75;2.20;;;;;;;;;;5056922;28;20032;-73
2022/09/04 07:30:24;;;;;;;4.78;2.22;;;;;;;;;;5057258;28;20380;-72
2022/09/04 07:32:50;;;;;;;6.57;2.08;;;;;;;;;;5057138;28;20036;-72
2022/09/04 07:35:23;;;;;;;6.05;2.35;;;;;;;;;;5057035;28;20025;-73
2022/09/04 07:38:07;;;;;;;4.93;2.00;;;;;;;;;;5056496;28;20025;-74
2022/09/04 07:40:35;;;;;;;5.38;1.95;;;;;;;;;;5057162;28;20021;-73
2022/09/04 07:43:02;;;;;;;6.05;2.00;;;;;;;;;;5056688;28;20108;-73
2022/09/04 07:45:34;;;;;;;4.95;2.15;;;;;;;;;;5056654;28;20024;-72
2022/09/04 07:48:19;;;;;;;6.78;2.00;;;;;;;;;;5056586;28;20029;-74
2022/09/04 07:51:02;;;;;;;7.25;2.20;;;;;;;;;;5057117;28;20029;-73
2022/09/04 07:53:34;;;;;;;4.68;2.10;;;;;;;;;;5056802;28;20032;-73
2022/09/04 07:56:02;;;;;;;6.03;2.30;;;;;;;;;;5056969;28;20021;-74
2022/09/04 07:58:48;;;;;;;9.63;2.47;;;;;;;;;;5055868;28;20049;-74
2022/09/04 08:01:33;;;;;;;5.85;2.13;;;;;;;;;;5056245;28;20044;-72
2022/09/04 08:03:59;;;;;;;4.32;2.50;;;;;;;;;;5056710;28;20028;-73
2022/09/04 08:06:38;;;;;;;6.50;2.13;;;;;;;;;;5056223;28;20021;-74
2022/09/04 08:09:17;;;;;;;4.25;2.00;;;;;;;;;;5057231;28;20413;-74
2022/09/04 08:12:03;;;;;;;4.35;2.00;;;;;;;;;;5055909;28;20075;-74
2022/09/04 08:14:32;;;;;;;6.10;2.08;;;;;;;;;;5037900;28;20036;-72
2022/09/04 08:17:19;;;;;;;5.57;2.17;;;;;;;;;;5054194;28;20021;-73
2022/09/04 08:20:04;;;;;;;6.32;2.00;;;;;;;;;;5037893;28;20078;-74
2022/09/04 08:22:33;;;;;;;7.70;2.42;;;;;;;;;;5055671;28;20044;-74
2022/09/04 08:25:15;;;;;;;5.40;2.15;;;;;;;;;;5054854;28;20361;-73
2022/09/04 08:27:50;;;;;;;6.60;2.17;;;;;;;;;;5055907;28;20021;-74
2022/09/04 08:30:19;;;;;;;9.45;2.30;;;;;;;;;;5055948;28;20056;-72
2022/09/04 08:33:00;;;;;;;7.97;2.50;;;;;;;;;;5056095;28;20382;-73
2022/09/04 08:35:32;;;;;;;6.75;2.72;;;;;;;;;;5055733;28;20040;-73
2022/09/04 08:38:07;;;;;;;3.65;2.00;;;;;;;;;;5054387;28;20017;-73
2022/09/04 08:40:40;;;;;;;8.38;2.83;;;;;;;;;;5055257;28;20048;-74
2022/09/04 08:43:09;;;;;;;4.97;2.03;;;;;;;;;;5055166;28;20063;-74
2022/09/04 08:45:44;;;;;;;8.07;2.87;;;;;;;;;;5055340;28;20488;-73
2022/09/04 08:48:10;;;;;;;4.85;2.17;;;;;;;;;;5055137;28;20060;-74
2022/09/04 08:50:51;;;;;;;4.85;2.20;;;;;;;;;;5054339;28;20065;-73
2022/09/04 08:53:18;;;;;;;4.45;1.83;;;;;;;;;;5055281;28;20036;-75
2022/09/04 08:55:59;;;;;;;4.93;1.90;;;;;;;;;;5055471;28;20044;-72
2022/09/04 08:58:25;;;;;;;9.30;2.30;;;;;;;;;;5053261;28;20045;-73
2022/09/04 09:00:54;;;;;;;6.43;2.25;;;;;;;;;;5054635;28;20473;-74
2022/09/04 09:03:40;;;;;;;7.07;1.90;;;;;;;;;;5054518;28;20029;-73
2022/09/04 09:06:25;;;;;;;5.43;2.17;;;;;;;;;;5054956;28;20033;-73
2022/09/04 09:09:09;;;;;;;6.78;2.13;;;;;;;;;;5054293;28;20040;-74
2022/09/04 09:11:50;;;;;;;6.45;2.10;;;;;;;;;;5053564;28;20029;-74
2022/09/04 09:14:19;;;;;;;6.10;2.05;;;;;;;;;;5055194;28;20036;-73
2022/09/04 09:17:05;;;;;;;7.27;1.80;;;;;;;;;;5053868;28;20025;-72
2022/09/04 09:19:36;;;;;;;6.95;2.03;;;;;;;;;;5053357;28;20270;-72
2022/09/04 09:22:05;;;;;;;5.15;1.80;;;;;;;;;;5053883;28;20055;-73
2022/09/04 09:24:31;;;;;;;4.30;1.90;;;;;;;;;;5054026;28;20142;-72
2022/09/04 09:27:12;;;;;;;7.97;2.30;;;;;;;;;;5054009;28;20072;-73
2022/09/04 09:29:39;;;;;;;7.32;1.90;;;;;;;;;;5034346;28;20068;-73
2022/09/04 09:32:11;;;;;;;3.38;1.92;;;;;;;;;;5034588;28;20508;-74
2022/09/04 09:34:40;;;;;;;9.70;2.33;;;;;;;;;;5034815;28;20030;-73
2022/09/04 09:37:24;;;;;;;5.57;2.23;;;;;;;;;;5032873;28;20286;-72
2022/09/04 09:39:50;;;;;;;7.03;2.33;;;;;;;;;;5034383;28;20056;-73
2022/09/04 09:42:31;;;;;;;5.50;1.98;;;;;;;;;;5034368;28;20029;-75
2022/09/04 09:45:12;;;;;;;6.15;2.03;;;;;;;;;;5034946;28;20500;-75
2022/09/04 09:47:56;;;;;;;4.43;2.03;;;;;;;;;;5034653;28;20063;-73
2022/09/04 09:50:22;;;;;;;7.68;2.20;;;;;;;;;;5034281;28;20026;-74
2022/09/04 09:52:57;;;;;;;3.42;1.88;;;;;;;;;;5034142;28;20371;-74
2022/09/04 09:55:41;;;;;;;5.60;2.28;;;;;;;;;;5034129;28;20025;-74
2022/09/04 09:58:07;;;;;;;5.60;2.05;;;;;;;;;;5033754;28;20055;-74
2022/09/04 10:00:46;;;;;;;6.22;1.98;;;;;;;;;;5033140;28;20421;-74
2022/09/04 10:03:23;;;;;;;3.88;1.75;;;;;;;;;;5033074;28;20037;-72
2022/09/04 10:06:08;;;;;;;4.90;2.03;;;;;;;;;;5034020;28;20017;-73
2022/09/04 10:08:46;;;;;;;5.10;2.08;;;;;;;;;;5032932;28;20030;-74
2022/09/04 10:11:15;;;;;;;5.50;1.80;;;;;;;;;;5016176;28;20061;-74
2022/09/04 10:13:41;;;;;;;4.13;2.20;;;;;;;;;;5016666;28;20029;-74
2022/09/04 10:16:07;;;;;;;4.80;1.65;;;;;;;;;;5033448;28;20029;-72
2022/09/04 10:18:46;;;;;;;8.80;2.45;;;;;;;;;;5032456;28;20017;-74
2022/09/04 10:21:19;;;;;;;7.22;1.90;;;;;;;;;;5033364;28;20501;-74
2022/09/04 10:24:05;;;;;;;7.07;2.10;;;;;;;;;;5033380;28;20547;-74
2022/09/04 10:26:38;;;;;;;3.92;1.85;;;;;;;;;;5033430;28;20022;-73
2022/09/04 10:29:22;;;;;;;8.70;2.70;;;;;;;;;;5033351;28;20025;-74
2022/09/04 10:31:51;;;;;;;5.80;2.00;;;;;;;;;;5033540;28;20104;-72
2022/09/04 10:34:26;;;;;;;7.30;1.90;;;;;;;;;;5033646;28;20366;-73
2022/09/04 10:37:11;;;;;;;5.10;2.35;;;;;;;;;;5032193;28;20664;-74
2022/09/04 10:43:00;;;;;;;7.72;2.15;;;;;;;;;;5033338;28;20040;-73
2022/09/04 10:45:32;;;;;;;4.50;2.20;;;;;;;;;;4972704;28;20026;-72
2022/09/04 10:48:16;;;;;;;5.88;2.42;;;;;;;;;;5023208;28;20042;-73
2022/09/04 10:51:11;;;;;;;4.95;2.00;;;;;;;;;;5033630;28;20087;-73
2022/09/04 10:53:40;;;;;;;4.97;1.90;;;;;;;;;;5033858;28;20033;-74
2022/09/04 10:56:25;;;;;;;6.63;1.80;;;;;;;;;;5033456;28;20033;-73
2022/09/04 10:59:02;;;;;;;5.40;1.83;;;;;;;;;;5033364;28;20358;-73
2022/09/04 11:01:46;;;;;;;7.25;1.85;;;;;;;;;;5033943;28;20416;-73
2022/09/04 11:04:26;;;;;;;4.68;2.30;;;;;;;;;;5033932;28;20076;-73
2022/09/04 11:06:52;;;;;;;4.85;2.00;;;;;;;;;;5033691;28;20021;-73
2022/09/04 11:09:36;;;;;;;4.75;2.00;;;;;;;;;;5033181;28;20101;-74
2022/09/04 11:12:06;;;;;;;6.20;2.03;;;;;;;;;;5033446;28;20392;-73
2022/09/04 11:14:55;;;;;;;6.90;2.10;;;;;;;;;;5033619;28;20022;-73
2022/09/04 11:17:29;;;;;;;3.72;2.05;;;;;;;;;;4996510;28;20041;-73
2022/09/04 11:20:11;;;;;;;4.75;1.90;;;;;;;;;;5033363;28;20025;-72
2022/09/04 11:22:37;;;;;;;3.85;1.75;;;;;;;;;;5033649;28;20025;-73
2022/09/04 11:25:17;;;;;;;8.70;2.03;;;;;;;;;;5033018;28;20029;-74
2022/09/04 11:27:50;;;;;;;4.15;1.90;;;;;;;;;;5033029;28;20048;-73
2022/09/04 11:30:16;;;;;;;5.90;2.35;;;;;;;;;;5033252;28;20029;-73
2022/09/04 11:33:01;;;;;;;5.65;1.88;;;;;;;;;;5032970;28;20423;-73
2022/09/04 11:35:56;;;;;;;5.20;2.15;;;;;;;;;;5032981;28;20362;-73
2022/09/04 11:38:23;;;;;;;3.90;2.10;;;;;;;;;;5016109;28;20507;-74
2022/09/04 11:40:49;;;;;;;6.13;2.20;;;;;;;;;;5015656;28;20049;-73
2022/09/04 11:43:15;;;;;;;5.90;2.20;;;;;;;;;;5033197;28;20025;-73
2022/09/04 11:45:59;;;;;;;7.78;2.03;;;;;;;;;;5032824;28;20014;-72
2022/09/04 11:48:46;;;;;;;5.25;2.45;;;;;;;;;;5032251;28;20108;-74
2022/09/04 11:51:17;;;;;;;7.90;2.35;;;;;;;;;;4991890;28;20354;-72
2022/09/04 11:53:43;;;;;;;3.70;1.80;;;;;;;;;;5031861;28;20030;-73
2022/09/04 11:56:15;;;;;;;3.30;2.15;;;;;;;;;;5031809;28;20048;-73
2022/09/04 11:58:51;;;;;;;5.05;2.85;;;;;;;;;;5031289;28;20040;-74
2022/09/04 12:01:35;;;;;;;3.95;2.30;;;;;;;;;;5034168;28;20068;-73
2022/09/04 12:04:22;;;;;;;2.97;1.90;;;;;;;;;;5036248;28;20061;-73
2022/09/04 12:06:58;;;;;;;2.92;2.05;;;;;;;;;;5035994;28;20018;-73
2022/09/04 12:09:34;;;;;;;5.63;2.60;;;;;;;;;;5036831;28;20143;-74
2022/09/04 12:12:04;;;;;;;3.95;2.10;;;;;;;;;;5036350;28;20022;-74
2022/09/04 12:14:33;;;;;;;5.43;2.00;;;;;;;;;;5036604;28;20022;-72
2022/09/04 12:17:14;;;;;;;4.80;2.40;;;;;;;;;;5035930;28;20615;-74
2022/09/04 12:19:49;;;;;;;3.90;1.92;;;;;;;;;;5036469;28;20018;-74
2022/09/04 12:22:35;;;;;;;4.43;2.28;;;;;;;;;;5036230;28;20022;-74
2022/09/04 12:25:04;;;;;;;6.47;2.53;;;;;;;;;;5035737;28;20420;-73
2022/09/04 12:27:49;;;;;;;4.03;2.30;;;;;;;;;;5035147;28;20405;-73
2022/09/04 12:30:15;;;;;;;4.78;2.20;;;;;;;;;;5033867;28;20029;-73
2022/09/04 12:32:54;;;;;;;6.47;2.20;;;;;;;;;;5034084;28;20040;-75
2022/09/04 12:35:29;;;;;;;5.25;2.35;;;;;;;;;;5036012;28;20424;-75
2022/09/04 12:37:56;;;;;;;5.57;2.47;;;;;;;;;;5035573;28;20037;-74
2022/09/04 12:40:51;;;;;;;4.20;2.10;;;;;;;;;;5034766;28;20029;-73
2022/09/04 12:43:26;;;;;;;4.05;1.92;;;;;;;;;;4965525;28;20106;-73
2022/09/04 12:46:11;;;;;;;4.38;1.90;;;;;;;;;;5035343;28;20381;-73
2022/09/04 12:48:56;;;;;;;5.00;2.10;;;;;;;;;;5035289;28;20543;-73
2022/09/04 12:51:24;;;;;;;4.45;2.20;;;;;;;;;;5034822;28;20096;-73
2022/09/04 12:53:56;;;;;;;4.90;2.03;;;;;;;;;;5034189;28;20407;-73
2022/09/04 12:56:25;;;;;;;5.32;2.30;;;;;;;;;;5033711;28;20362;-75
2022/09/04 12:58:51;;;;;;;6.40;2.50;;;;;;;;;;5033382;28;20075;-74
2022/09/04 13:01:30;;;;;;;5.63;2.45;;;;;;;;;;5034136;28;20271;-74
2022/09/04 13:04:14;;;;;;;3.63;2.17;;;;;;;;;;5016158;28;20083;-73
2022/09/04 13:06:43;;;;;;;6.43;2.20;;;;;;;;;;5034009;28;20104;-73
2022/09/04 13:09:18;;;;;;;5.83;2.13;;;;;;;;;;5034853;28;20033;-75
2022/09/04 13:11:57;;;;;;;5.95;2.30;;;;;;;;;;5016878;28;20272;-73
2022/09/04 13:14:43;;;;;;;4.43;2.40;;;;;;;;;;5036043;28;20021;-74
2022/09/04 13:17:22;;;;;;;4.30;2.10;;;;;;;;;;5007545;28;20038;-74
2022/09/04 13:20:03;;;;;;;4.50;2.22;;;;;;;;;;5033187;28;20052;-74
2022/09/04 13:22:34;;;;;;;4.40;2.45;;;;;;;;;;5032789;28;20486;-72
2022/09/04 13:25:15;;;;;;;3.28;2.17;;;;;;;;;;5034197;28;20046;-75
2022/09/04 13:27:56;;;;;;;4.20;2.05;;;;;;;;;;5034281;28;20104;-73
2022/09/04 13:30:24;;;;;;;6.15;2.47;;;;;;;;;;5034369;28;20036;-74
2022/09/04 13:33:05;;;;;;;5.88;2.45;;;;;;;;;;5033649;28;20032;-75
2022/09/04 13:35:31;;;;;;;5.07;2.85;;;;;;;;;;5033381;28;20392;-72
2022/09/04 13:37:57;;;;;;;7.05;3.88;;;;;;;;;;5034313;28;20026;-74
2022/09/04 13:40:35;;;;;;;3.58;2.00;;;;;;;;;;5033991;28;20021;-74
2022/09/04 13:43:20;;;;;;;3.88;2.20;;;;;;;;;;5032441;28;20025;-74
2022/09/04 13:45:57;;;;;;;3.95;2.08;;;;;;;;;;5032911;28;20436;-74
2022/09/04 13:48:32;;;;;;;2.65;1.77;;;;;;;;;;5033943;28;20057;-74
2022/09/04 13:51:01;;;;;;;4.60;2.10;;;;;;;;;;5033888;28;20025;-74
2022/09/04 13:53:34;;;;;;;6.57;2.13;;;;;;;;;;5033851;28;20033;-74
2022/09/04 13:56:05;;;;;;;3.55;2.30;;;;;;;;;;5034050;28;20083;-74
2022/09/04 13:58:37;;;;;;;5.35;2.40;;;;;;;;;;5033648;28;20573;-73
2022/09/04 14:01:08;;;;;;;4.40;2.08;;;;;;;;;;5034223;28;20108;-75
2022/09/04 14:03:52;;;;;;;4.07;2.40;;;;;;;;;;5015929;28;20024;-73
2022/09/04 14:06:20;;;;;;;7.50;2.25;;;;;;;;;;5016533;28;20543;-74
2022/09/04 14:08:48;;;;;;;7.28;2.75;;;;;;;;;;5034087;28;20547;-73
2022/09/04 14:11:38;;;;;;;5.60;2.17;;;;;;;;;;5033962;28;20076;-74
2022/09/04 14:14:32;;;;;;;5.13;2.38;;;;;;;;;;5034216;28;20064;-74
2022/09/04 14:16:58;;;;;;;5.25;2.40;;;;;;;;;;5011619;28;20128;-73
2022/09/04 14:19:30;;;;;;;6.82;2.40;;;;;;;;;;5034030;28;19913;-75
2022/09/04 14:22:01;;;;;;;4.63;2.50;;;;;;;;;;5032779;28;20021;-74
2022/09/04 14:24:46;;;;;;;6.35;2.50;;;;;;;;;;5014403;28;20034;-74
2022/09/04 14:27:27;;;;;;;3.75;2.38;;;;;;;;;;5031989;28;20382;-73
2022/09/04 14:30:13;;;;;;;3.80;2.20;;;;;;;;;;5031317;28;20052;-74
2022/09/04 14:32:39;;;;;;;7.25;3.25;;;;;;;;;;5033304;28;20021;-72
2022/09/04 14:35:19;;;;;;;5.20;3.20;;;;;;;;;;5033635;28;20061;-72
2022/09/04 14:37:53;;;;;;;6.85;4.15;;;;;;;;;;5015321;28;20378;-73
2022/09/04 14:40:19;;;;;;;4.72;2.70;;;;;;;;;;5033321;28;20014;-74
2022/09/04 14:42:57;;;;;;;6.85;2.25;;;;;;;;;;5032266;28;20033;-74
2022/09/04 14:45:29;;;;;;;5.55;2.20;;;;;;;;;;5033298;28;20024;-71
2022/09/04 14:48:08;;;;;;;3.63;2.10;;;;;;;;;;5033201;28;20030;-74
2022/09/04 14:50:44;;;;;;;5.75;2.58;;;;;;;;;;5033724;28;20049;-73
2022/09/04 14:53:11;;;;;;;6.72;2.97;;;;;;;;;;5033064;28;20033;-72
2022/09/04 14:55:42;;;;;;;4.72;2.80;;;;;;;;;;5032994;28;20029;-74
2022/09/04 14:58:13;;;;;;;5.45;2.40;;;;;;;;;;5043052;28;20102;-74
2022/09/04 15:00:56;;;;;;;5.88;3.10;;;;;;;;;;5052181;28;20413;-73
2022/09/04 15:03:24;;;;;;;4.72;2.30;;;;;;;;;;5052958;28;20017;-74
2022/09/04 15:05:55;;;;;;;3.72;2.33;;;;;;;;;;5052340;28;20098;-73
2022/09/04 15:08:32;;;;;;;5.03;2.90;;;;;;;;;;5053322;28;20025;-74
2022/09/04 15:11:02;;;;;;;5.15;2.30;;;;;;;;;;5053028;28;20075;-75
2022/09/04 15:13:28;;;;;;;3.88;2.10;;;;;;;;;;5052611;28;20126;-73
2022/09/04 15:16:12;;;;;;;3.85;2.00;;;;;;;;;;5053236;28;20473;-75
2022/09/04 15:18:39;;;;;;;3.75;2.00;;;;;;;;;;5052663;28;20104;-73
2022/09/04 15:21:10;;;;;;;4.07;2.33;;;;;;;;;;5052543;28;20484;-74
2022/09/04 15:24:05;;;;;;;3.55;2.13;;;;;;;;;;5051490;28;20119;-72
2022/09/04 15:26:35;;;;;;;8.23;2.78;;;;;;;;;;5039368;28;20132;-74
2022/09/04 15:29:08;;;;;;;5.38;2.40;;;;;;;;;;5052095;28;20082;-73
2022/09/04 15:31:40;;;;;;;3.70;2.42;;;;;;;;;;5052391;28;20473;-74
2022/09/04 15:34:08;;;;;;;5.28;2.40;;;;;;;;;;5053141;28;20032;-72
2022/09/04 15:36:36;;;;;;;7.88;2.72;;;;;;;;;;5057008;28;20032;-74
2022/09/04 15:39:04;;;;;;;6.05;2.38;;;;;;;;;;5056006;28;20017;-74
2022/09/04 15:41:36;;;;;;;4.75;2.40;;;;;;;;;;5055054;28;20055;-74